sensor_id;sensor_type;location;lat;lon;timestamp;P1;durP1;ratioP1;P2;durP2;ratioP2
10132;SDS011;5106;50.926;7.080;2022-07-29T00:01:07;2.45;;;1.60;;
10132;SDS011;5106;50.926;7.080;2022-07-29T00:03:33;3.08;;;1.50;;
10132;SDS011;5106;50.926;7.080;2022-07-29T00:05:58;2.97;;;1.52;;
10132;SDS011;5106;50.926;7.080;2022-07-29T00:08:24;4.05;;;1.77;;
10132;SDS011;5106;50.926;7.080;2022-07-29T00:10:49;2.92;;;1.55;;
10132;SDS011;5106;50.926;7.080;2022-07-29T00:13:15;1.70;;;1.50;;
10132;SDS011;5106;50.926;7.080;2022-07-29T00:15:41;5.88;;;1.80;;
10132;SDS011;5106;50.926;7.080;2022-07-29T00:18:06;3.10;;;1.52;;
10132;SDS011;5106;50.926;7.080;2022-07-29T00:20:32;3.92;;;1.50;;
10132;SDS011;5106;50.926;7.080;2022-07-29T00:22:58;1.90;;;1.40;;
10132;SDS011;5106;50.926;7.080;2022-07-29T00:25:23;3.78;;;1.80;;
10132;SDS011;5106;50.926;7.080;2022-07-29T00:27:49;2.85;;;1.63;;
10132;SDS011;5106;50.926;7.080;2022-07-29T00:30:15;2.67;;;1.85;;
10132;SDS011;5106;50.926;7.080;2022-07-29T00:32:40;2.38;;;1.58;;
10132;SDS011;5106;50.926;7.080;2022-07-29T00:35:06;3.72;;;1.73;;
10132;SDS011;5106;50.926;7.080;2022-07-29T00:37:51;2.50;;;1.73;;
10132;SDS011;5106;50.926;7.080;2022-07-29T00:40:16;3.75;;;1.77;;
10132;SDS011;5106;50.926;7.080;2022-07-29T00:42:46;3.20;;;1.70;;
10132;SDS011;5106;50.926;7.080;2022-07-29T00:45:13;4.65;;;1.75;;
10132;SDS011;5106;50.926;7.080;2022-07-29T00:47:40;1.88;;;1.38;;
10132;SDS011;5106;50.926;7.080;2022-07-29T00:50:06;4.38;;;1.95;;
10132;SDS011;5106;50.926;7.080;2022-07-29T00:52:34;3.05;;;1.60;;
10132;SDS011;5106;50.926;7.080;2022-07-29T00:55:05;3.65;;;1.80;;
10132;SDS011;5106;50.926;7.080;2022-07-29T00:57:33;2.88;;;1.60;;
10132;SDS011;5106;50.926;7.080;2022-07-29T00:59:59;2.45;;;1.65;;
10132;SDS011;5106;50.926;7.080;2022-07-29T01:02:25;2.95;;;1.50;;
10132;SDS011;5106;50.926;7.080;2022-07-29T01:04:51;2.63;;;1.48;;
10132;SDS011;5106;50.926;7.080;2022-07-29T01:07:18;6.75;;;2.03;;
10132;SDS011;5106;50.926;7.080;2022-07-29T01:09:44;2.28;;;1.70;;
10132;SDS011;5106;50.926;7.080;2022-07-29T01:12:11;3.97;;;1.60;;
10132;SDS011;5106;50.926;7.080;2022-07-29T01:14:46;2.45;;;1.60;;
10132;SDS011;5106;50.926;7.080;2022-07-29T01:19:52;4.93;;;1.83;;
10132;SDS011;5106;50.926;7.080;2022-07-29T01:31:10;3.78;;;1.90;;
10132;SDS011;5106;50.926;7.080;2022-07-29T01:33:38;3.03;;;1.70;;
10132;SDS011;5106;50.926;7.080;2022-07-29T01:36:14;2.20;;;1.60;;
10132;SDS011;5106;50.926;7.080;2022-07-29T01:38:46;2.45;;;1.40;;
10132;SDS011;5106;50.926;7.080;2022-07-29T01:41:19;3.65;;;1.83;;
10132;SDS011;5106;50.926;7.080;2022-07-29T01:43:57;3.70;;;1.77;;
10132;SDS011;5106;50.926;7.080;2022-07-29T01:46:30;1.95;;;1.70;;
10132;SDS011;5106;50.926;7.080;2022-07-29T01:49:00;3.42;;;1.92;;
10132;SDS011;5106;50.926;7.080;2022-07-29T01:51:46;2.78;;;1.83;;
10132;SDS011;5106;50.926;7.080;2022-07-29T01:54:44;3.15;;;1.70;;
10132;SDS011;5106;50.926;7.080;2022-07-29T01:57:14;3.05;;;1.73;;
10132;SDS011;5106;50.926;7.080;2022-07-29T01:59:45;3.88;;;1.80;;
10132;SDS011;5106;50.926;7.080;2022-07-29T02:02:13;3.22;;;1.70;;
10132;SDS011;5106;50.926;7.080;2022-07-29T02:04:41;4.10;;;1.50;;
10132;SDS011;5106;50.926;7.080;2022-07-29T02:07:10;1.95;;;1.40;;
10132;SDS011;5106;50.926;7.080;2022-07-29T02:09:39;2.03;;;1.60;;
10132;SDS011;5106;50.926;7.080;2022-07-29T02:12:07;3.45;;;1.60;;
10132;SDS011;5106;50.926;7.080;2022-07-29T02:14:36;4.05;;;1.65;;
10132;SDS011;5106;50.926;7.080;2022-07-29T02:17:04;2.72;;;1.70;;
10132;SDS011;5106;50.926;7.080;2022-07-29T02:19:31;2.85;;;1.60;;
10132;SDS011;5106;50.926;7.080;2022-07-29T02:21:58;3.17;;;1.50;;
10132;SDS011;5106;50.926;7.080;2022-07-29T02:24:25;2.95;;;1.65;;
10132;SDS011;5106;50.926;7.080;2022-07-29T02:26:53;2.45;;;1.67;;
10132;SDS011;5106;50.926;7.080;2022-07-29T02:29:22;2.65;;;1.42;;
10132;SDS011;5106;50.926;7.080;2022-07-29T02:31:50;3.58;;;1.60;;
10132;SDS011;5106;50.926;7.080;2022-07-29T02:34:18;3.55;;;1.50;;
10132;SDS011;5106;50.926;7.080;2022-07-29T02:36:46;2.67;;;1.60;;
10132;SDS011;5106;50.926;7.080;2022-07-29T02:39:12;5.57;;;2.10;;
10132;SDS011;5106;50.926;7.080;2022-07-29T02:41:47;3.28;;;1.60;;
10132;SDS011;5106;50.926;7.080;2022-07-29T02:44:20;2.25;;;1.60;;
10132;SDS011;5106;50.926;7.080;2022-07-29T02:46:50;2.85;;;1.80;;
10132;SDS011;5106;50.926;7.080;2022-07-29T02:49:36;2.58;;;1.90;;
10132;SDS011;5106;50.926;7.080;2022-07-29T02:52:26;2.60;;;1.80;;
10132;SDS011;5106;50.926;7.080;2022-07-29T02:54:56;3.10;;;1.83;;
10132;SDS011;5106;50.926;7.080;2022-07-29T03:00:00;3.05;;;1.67;;
10132;SDS011;5106;50.926;7.080;2022-07-29T03:02:32;2.72;;;1.70;;
10132;SDS011;5106;50.926;7.080;2022-07-29T03:05:00;2.53;;;1.90;;
10132;SDS011;5106;50.926;7.080;2022-07-29T03:07:27;2.97;;;1.55;;
10132;SDS011;5106;50.926;7.080;2022-07-29T03:09:54;3.45;;;1.77;;
10132;SDS011;5106;50.926;7.080;2022-07-29T03:12:20;3.42;;;2.05;;
10132;SDS011;5106;50.926;7.080;2022-07-29T03:14:47;2.85;;;1.70;;
10132;SDS011;5106;50.926;7.080;2022-07-29T03:17:13;2.30;;;1.73;;
10132;SDS011;5106;50.926;7.080;2022-07-29T03:19:39;2.10;;;1.67;;
10132;SDS011;5106;50.926;7.080;2022-07-29T03:22:06;2.95;;;1.70;;
10132;SDS011;5106;50.926;7.080;2022-07-29T03:24:36;4.53;;;2.00;;
10132;SDS011;5106;50.926;7.080;2022-07-29T03:27:03;2.90;;;1.80;;
10132;SDS011;5106;50.926;7.080;2022-07-29T03:29:29;2.22;;;1.83;;
10132;SDS011;5106;50.926;7.080;2022-07-29T03:31:55;4.18;;;2.10;;
10132;SDS011;5106;50.926;7.080;2022-07-29T03:34:21;3.45;;;1.80;;
10132;SDS011;5106;50.926;7.080;2022-07-29T03:36:47;3.00;;;1.70;;
10132;SDS011;5106;50.926;7.080;2022-07-29T03:39:15;2.03;;;1.70;;
10132;SDS011;5106;50.926;7.080;2022-07-29T03:41:47;3.67;;;1.48;;
10132;SDS011;5106;50.926;7.080;2022-07-29T03:44:17;3.38;;;1.55;;
10132;SDS011;5106;50.926;7.080;2022-07-29T03:46:44;3.67;;;1.70;;
10132;SDS011;5106;50.926;7.080;2022-07-29T03:49:12;3.65;;;2.00;;
10132;SDS011;5106;50.926;7.080;2022-07-29T03:51:41;2.55;;;1.90;;
10132;SDS011;5106;50.926;7.080;2022-07-29T03:54:07;2.40;;;1.85;;
10132;SDS011;5106;50.926;7.080;2022-07-29T03:56:34;2.42;;;1.70;;
10132;SDS011;5106;50.926;7.080;2022-07-29T03:59:05;3.22;;;1.80;;
10132;SDS011;5106;50.926;7.080;2022-07-29T04:01:32;4.45;;;2.08;;
10132;SDS011;5106;50.926;7.080;2022-07-29T04:03:59;3.92;;;1.88;;
10132;SDS011;5106;50.926;7.080;2022-07-29T04:06:26;3.63;;;1.67;;
10132;SDS011;5106;50.926;7.080;2022-07-29T04:08:51;3.33;;;1.95;;
10132;SDS011;5106;50.926;7.080;2022-07-29T04:11:17;2.85;;;1.58;;
10132;SDS011;5106;50.926;7.080;2022-07-29T04:13:43;2.55;;;1.63;;
10132;SDS011;5106;50.926;7.080;2022-07-29T04:16:09;2.45;;;1.75;;
10132;SDS011;5106;50.926;7.080;2022-07-29T04:18:34;2.95;;;1.83;;
10132;SDS011;5106;50.926;7.080;2022-07-29T04:21:01;3.10;;;2.03;;
10132;SDS011;5106;50.926;7.080;2022-07-29T04:23:31;3.90;;;2.10;;
10132;SDS011;5106;50.926;7.080;2022-07-29T04:25:59;4.45;;;1.80;;
10132;SDS011;5106;50.926;7.080;2022-07-29T04:28:26;2.78;;;1.92;;
10132;SDS011;5106;50.926;7.080;2022-07-29T04:30:51;3.30;;;2.00;;
10132;SDS011;5106;50.926;7.080;2022-07-29T04:33:17;6.38;;;2.10;;
10132;SDS011;5106;50.926;7.080;2022-07-29T04:35:42;3.42;;;2.08;;
10132;SDS011;5106;50.926;7.080;2022-07-29T04:38:08;4.43;;;1.85;;
10132;SDS011;5106;50.926;7.080;2022-07-29T04:40:34;2.55;;;1.60;;
10132;SDS011;5106;50.926;7.080;2022-07-29T04:43:00;5.32;;;1.80;;
10132;SDS011;5106;50.926;7.080;2022-07-29T04:45:26;3.55;;;2.08;;
10132;SDS011;5106;50.926;7.080;2022-07-29T04:47:52;5.60;;;2.17;;
10132;SDS011;5106;50.926;7.080;2022-07-29T04:50:18;2.70;;;2.00;;
10132;SDS011;5106;50.926;7.080;2022-07-29T04:52:44;4.18;;;1.75;;
10132;SDS011;5106;50.926;7.080;2022-07-29T04:55:09;3.58;;;2.20;;
10132;SDS011;5106;50.926;7.080;2022-07-29T04:57:35;4.78;;;1.92;;
10132;SDS011;5106;50.926;7.080;2022-07-29T05:00:00;4.20;;;1.92;;
10132;SDS011;5106;50.926;7.080;2022-07-29T05:02:26;2.97;;;1.88;;
10132;SDS011;5106;50.926;7.080;2022-07-29T05:04:52;4.03;;;2.05;;
10132;SDS011;5106;50.926;7.080;2022-07-29T05:07:17;4.68;;;2.22;;
10132;SDS011;5106;50.926;7.080;2022-07-29T05:09:43;4.20;;;1.80;;
10132;SDS011;5106;50.926;7.080;2022-07-29T05:12:09;4.93;;;1.80;;
10132;SDS011;5106;50.926;7.080;2022-07-29T05:14:34;4.28;;;1.90;;
10132;SDS011;5106;50.926;7.080;2022-07-29T05:17:00;2.95;;;1.63;;
10132;SDS011;5106;50.926;7.080;2022-07-29T05:19:25;5.63;;;2.20;;
10132;SDS011;5106;50.926;7.080;2022-07-29T05:21:51;4.60;;;2.05;;
10132;SDS011;5106;50.926;7.080;2022-07-29T05:24:17;5.80;;;1.83;;
10132;SDS011;5106;50.926;7.080;2022-07-29T05:26:42;6.15;;;1.85;;
10132;SDS011;5106;50.926;7.080;2022-07-29T05:29:08;3.00;;;1.85;;
10132;SDS011;5106;50.926;7.080;2022-07-29T05:31:34;4.72;;;2.10;;
10132;SDS011;5106;50.926;7.080;2022-07-29T05:34:00;3.10;;;1.83;;
10132;SDS011;5106;50.926;7.080;2022-07-29T05:36:26;4.65;;;2.03;;
10132;SDS011;5106;50.926;7.080;2022-07-29T05:38:51;8.38;;;2.05;;
10132;SDS011;5106;50.926;7.080;2022-07-29T05:41:17;4.60;;;2.38;;
10132;SDS011;5106;50.926;7.080;2022-07-29T05:43:43;4.57;;;2.22;;
10132;SDS011;5106;50.926;7.080;2022-07-29T05:46:09;4.70;;;1.77;;
10132;SDS011;5106;50.926;7.080;2022-07-29T05:48:35;3.15;;;1.90;;
10132;SDS011;5106;50.926;7.080;2022-07-29T05:51:00;10.88;;;2.13;;
10132;SDS011;5106;50.926;7.080;2022-07-29T05:53:27;6.22;;;2.08;;
10132;SDS011;5106;50.926;7.080;2022-07-29T05:55:52;2.92;;;1.80;;
10132;SDS011;5106;50.926;7.080;2022-07-29T05:58:18;3.13;;;1.90;;
10132;SDS011;5106;50.926;7.080;2022-07-29T06:00:44;5.75;;;1.70;;
10132;SDS011;5106;50.926;7.080;2022-07-29T06:03:10;5.70;;;2.03;;
10132;SDS011;5106;50.926;7.080;2022-07-29T06:05:36;2.92;;;1.75;;
10132;SDS011;5106;50.926;7.080;2022-07-29T06:08:01;3.83;;;1.98;;
10132;SDS011;5106;50.926;7.080;2022-07-29T06:10:27;3.65;;;1.90;;
10132;SDS011;5106;50.926;7.080;2022-07-29T06:12:53;5.22;;;1.92;;
10132;SDS011;5106;50.926;7.080;2022-07-29T06:15:18;4.18;;;1.80;;
10132;SDS011;5106;50.926;7.080;2022-07-29T06:17:44;3.08;;;1.83;;
10132;SDS011;5106;50.926;7.080;2022-07-29T06:20:10;4.35;;;1.98;;
10132;SDS011;5106;50.926;7.080;2022-07-29T06:22:36;4.32;;;1.77;;
10132;SDS011;5106;50.926;7.080;2022-07-29T06:25:02;6.38;;;2.08;;
10132;SDS011;5106;50.926;7.080;2022-07-29T06:27:28;4.85;;;1.95;;
10132;SDS011;5106;50.926;7.080;2022-07-29T06:29:55;4.60;;;1.90;;
10132;SDS011;5106;50.926;7.080;2022-07-29T06:32:22;3.58;;;1.80;;
10132;SDS011;5106;50.926;7.080;2022-07-29T06:34:47;4.47;;;1.70;;
10132;SDS011;5106;50.926;7.080;2022-07-29T06:37:13;3.70;;;1.83;;
10132;SDS011;5106;50.926;7.080;2022-07-29T06:39:39;2.70;;;1.85;;
10132;SDS011;5106;50.926;7.080;2022-07-29T06:42:05;4.50;;;1.75;;
10132;SDS011;5106;50.926;7.080;2022-07-29T06:44:31;2.15;;;1.65;;
10132;SDS011;5106;50.926;7.080;2022-07-29T06:46:59;4.40;;;1.83;;
10132;SDS011;5106;50.926;7.080;2022-07-29T06:49:25;2.60;;;1.70;;
10132;SDS011;5106;50.926;7.080;2022-07-29T06:51:51;4.40;;;1.80;;
10132;SDS011;5106;50.926;7.080;2022-07-29T06:54:17;4.32;;;1.77;;
10132;SDS011;5106;50.926;7.080;2022-07-29T06:56:43;5.70;;;1.77;;
10132;SDS011;5106;50.926;7.080;2022-07-29T06:59:09;3.67;;;2.00;;
10132;SDS011;5106;50.926;7.080;2022-07-29T07:01:36;4.43;;;2.08;;
10132;SDS011;5106;50.926;7.080;2022-07-29T07:04:02;3.58;;;1.63;;
10132;SDS011;5106;50.926;7.080;2022-07-29T07:06:28;4.97;;;1.70;;
10132;SDS011;5106;50.926;7.080;2022-07-29T07:08:53;5.95;;;2.13;;
10132;SDS011;5106;50.926;7.080;2022-07-29T07:11:19;5.35;;;1.88;;
10132;SDS011;5106;50.926;7.080;2022-07-29T07:13:45;5.38;;;2.00;;
10132;SDS011;5106;50.926;7.080;2022-07-29T07:16:11;9.10;;;1.90;;
10132;SDS011;5106;50.926;7.080;2022-07-29T07:18:36;3.50;;;1.73;;
10132;SDS011;5106;50.926;7.080;2022-07-29T07:21:02;3.55;;;1.83;;
10132;SDS011;5106;50.926;7.080;2022-07-29T07:23:29;5.38;;;2.25;;
10132;SDS011;5106;50.926;7.080;2022-07-29T07:25:55;4.05;;;1.85;;
10132;SDS011;5106;50.926;7.080;2022-07-29T07:28:21;3.85;;;1.95;;
10132;SDS011;5106;50.926;7.080;2022-07-29T07:30:46;4.53;;;1.70;;
10132;SDS011;5106;50.926;7.080;2022-07-29T07:33:12;4.60;;;2.00;;
10132;SDS011;5106;50.926;7.080;2022-07-29T07:35:38;3.15;;;2.10;;
10132;SDS011;5106;50.926;7.080;2022-07-29T07:38:04;4.47;;;2.00;;
10132;SDS011;5106;50.926;7.080;2022-07-29T07:40:31;3.60;;;1.80;;
10132;SDS011;5106;50.926;7.080;2022-07-29T07:42:57;4.07;;;2.08;;
10132;SDS011;5106;50.926;7.080;2022-07-29T07:45:22;7.05;;;2.10;;
10132;SDS011;5106;50.926;7.080;2022-07-29T07:47:48;3.15;;;1.77;;
10132;SDS011;5106;50.926;7.080;2022-07-29T07:50:14;3.20;;;1.85;;
10132;SDS011;5106;50.926;7.080;2022-07-29T07:52:51;3.90;;;1.98;;
10132;SDS011;5106;50.926;7.080;2022-07-29T07:55:19;5.85;;;2.35;;
10132;SDS011;5106;50.926;7.080;2022-07-29T07:57:46;2.58;;;1.60;;
10132;SDS011;5106;50.926;7.080;2022-07-29T08:00:12;4.00;;;2.10;;
10132;SDS011;5106;50.926;7.080;2022-07-29T08:02:39;3.40;;;1.92;;
10132;SDS011;5106;50.926;7.080;2022-07-29T08:05:07;5.75;;;2.10;;
10132;SDS011;5106;50.926;7.080;2022-07-29T08:07:33;4.55;;;2.00;;
10132;SDS011;5106;50.926;7.080;2022-07-29T08:09:59;9.45;;;2.25;;
10132;SDS011;5106;50.926;7.080;2022-07-29T08:12:24;5.25;;;1.80;;
10132;SDS011;5106;50.926;7.080;2022-07-29T08:14:50;4.95;;;1.92;;
10132;SDS011;5106;50.926;7.080;2022-07-29T08:17:16;3.80;;;2.00;;
10132;SDS011;5106;50.926;7.080;2022-07-29T08:19:41;6.15;;;2.10;;
10132;SDS011;5106;50.926;7.080;2022-07-29T08:22:07;5.43;;;2.22;;
10132;SDS011;5106;50.926;7.080;2022-07-29T08:24:33;4.53;;;2.15;;
10132;SDS011;5106;50.926;7.080;2022-07-29T08:27:17;3.00;;;1.83;;
10132;SDS011;5106;50.926;7.080;2022-07-29T08:29:45;9.10;;;2.30;;
10132;SDS011;5106;50.926;7.080;2022-07-29T08:32:11;3.08;;;2.03;;
10132;SDS011;5106;50.926;7.080;2022-07-29T08:34:36;4.30;;;2.00;;
10132;SDS011;5106;50.926;7.080;2022-07-29T08:37:02;3.65;;;1.80;;
10132;SDS011;5106;50.926;7.080;2022-07-29T08:39:28;7.22;;;2.05;;
10132;SDS011;5106;50.926;7.080;2022-07-29T08:41:53;7.38;;;1.98;;
10132;SDS011;5106;50.926;7.080;2022-07-29T08:44:20;3.05;;;2.00;;
10132;SDS011;5106;50.926;7.080;2022-07-29T08:46:46;5.78;;;1.85;;
10132;SDS011;5106;50.926;7.080;2022-07-29T08:49:14;4.10;;;2.03;;
10132;SDS011;5106;50.926;7.080;2022-07-29T08:51:40;3.65;;;1.95;;
10132;SDS011;5106;50.926;7.080;2022-07-29T08:54:08;5.30;;;1.63;;
10132;SDS011;5106;50.926;7.080;2022-07-29T08:56:34;4.15;;;2.03;;
10132;SDS011;5106;50.926;7.080;2022-07-29T08:59:03;5.10;;;1.77;;
10132;SDS011;5106;50.926;7.080;2022-07-29T09:01:30;7.00;;;2.10;;
10132;SDS011;5106;50.926;7.080;2022-07-29T09:03:58;3.38;;;1.95;;
10132;SDS011;5106;50.926;7.080;2022-07-29T09:06:26;5.53;;;1.92;;
10132;SDS011;5106;50.926;7.080;2022-07-29T09:08:58;5.60;;;1.98;;
10132;SDS011;5106;50.926;7.080;2022-07-29T09:11:25;6.10;;;2.25;;
10132;SDS011;5106;50.926;7.080;2022-07-29T09:13:51;5.57;;;2.00;;
10132;SDS011;5106;50.926;7.080;2022-07-29T09:16:17;6.43;;;2.22;;
10132;SDS011;5106;50.926;7.080;2022-07-29T09:18:44;4.63;;;2.05;;
10132;SDS011;5106;50.926;7.080;2022-07-29T09:21:12;6.40;;;2.22;;
10132;SDS011;5106;50.926;7.080;2022-07-29T09:23:59;3.20;;;2.13;;
10132;SDS011;5106;50.926;7.080;2022-07-29T09:26:34;6.63;;;2.40;;
10132;SDS011;5106;50.926;7.080;2022-07-29T09:29:10;8.65;;;2.30;;
10132;SDS011;5106;50.926;7.080;2022-07-29T09:31:44;5.30;;;2.00;;
10132;SDS011;5106;50.926;7.080;2022-07-29T09:34:11;4.25;;;1.90;;
10132;SDS011;5106;50.926;7.080;2022-07-29T09:36:43;5.50;;;2.20;;
10132;SDS011;5106;50.926;7.080;2022-07-29T09:39:10;6.20;;;1.75;;
10132;SDS011;5106;50.926;7.080;2022-07-29T09:41:45;4.38;;;1.88;;
10132;SDS011;5106;50.926;7.080;2022-07-29T09:44:11;4.38;;;2.15;;
10132;SDS011;5106;50.926;7.080;2022-07-29T09:46:37;5.13;;;2.10;;
10132;SDS011;5106;50.926;7.080;2022-07-29T09:49:06;2.55;;;1.70;;
10132;SDS011;5106;50.926;7.080;2022-07-29T09:51:36;9.95;;;2.00;;
10132;SDS011;5106;50.926;7.080;2022-07-29T09:54:10;6.40;;;2.08;;
10132;SDS011;5106;50.926;7.080;2022-07-29T09:56:53;10.00;;;2.22;;
10132;SDS011;5106;50.926;7.080;2022-07-29T09:59:19;6.80;;;2.47;;
10132;SDS011;5106;50.926;7.080;2022-07-29T10:01:47;7.35;;;2.63;;
10132;SDS011;5106;50.926;7.080;2022-07-29T10:04:14;10.20;;;2.25;;
10132;SDS011;5106;50.926;7.080;2022-07-29T10:07:00;8.90;;;2.80;;
10132;SDS011;5106;50.926;7.080;2022-07-29T10:09:27;6.80;;;2.45;;
10132;SDS011;5106;50.926;7.080;2022-07-29T10:12:02;8.27;;;2.67;;
10132;SDS011;5106;50.926;7.080;2022-07-29T10:14:34;6.15;;;2.67;;
10132;SDS011;5106;50.926;7.080;2022-07-29T10:17:00;8.48;;;3.10;;
10132;SDS011;5106;50.926;7.080;2022-07-29T10:19:28;6.93;;;2.50;;
10132;SDS011;5106;50.926;7.080;2022-07-29T10:21:56;6.20;;;2.83;;
10132;SDS011;5106;50.926;7.080;2022-07-29T10:24:24;6.18;;;2.58;;
10132;SDS011;5106;50.926;7.080;2022-07-29T10:26:51;7.55;;;3.22;;
10132;SDS011;5106;50.926;7.080;2022-07-29T10:29:22;7.28;;;3.00;;
10132;SDS011;5106;50.926;7.080;2022-07-29T10:37:27;9.55;;;3.40;;
10132;SDS011;5106;50.926;7.080;2022-07-29T10:42:54;10.70;;;3.05;;
10132;SDS011;5106;50.926;7.080;2022-07-29T10:45:24;5.22;;;2.80;;
10132;SDS011;5106;50.926;7.080;2022-07-29T10:48:01;7.20;;;3.10;;
10132;SDS011;5106;50.926;7.080;2022-07-29T10:50:44;5.07;;;2.90;;
10132;SDS011;5106;50.926;7.080;2022-07-29T10:53:23;5.35;;;2.97;;
10132;SDS011;5106;50.926;7.080;2022-07-29T10:55:50;5.32;;;2.70;;
10132;SDS011;5106;50.926;7.080;2022-07-29T11:00:43;5.57;;;2.58;;
10132;SDS011;5106;50.926;7.080;2022-07-29T11:03:27;5.85;;;2.60;;
10132;SDS011;5106;50.926;7.080;2022-07-29T11:06:12;7.88;;;2.90;;
10132;SDS011;5106;50.926;7.080;2022-07-29T11:08:38;7.03;;;2.55;;
10132;SDS011;5106;50.926;7.080;2022-07-29T11:16:15;6.97;;;2.78;;
10132;SDS011;5106;50.926;7.080;2022-07-29T11:21:35;4.80;;;2.38;;
10132;SDS011;5106;50.926;7.080;2022-07-29T11:24:12;5.93;;;2.20;;
10132;SDS011;5106;50.926;7.080;2022-07-29T11:26:38;7.63;;;2.60;;
10132;SDS011;5106;50.926;7.080;2022-07-29T11:29:20;6.07;;;2.67;;
10132;SDS011;5106;50.926;7.080;2022-07-29T11:31:52;4.45;;;2.50;;
10132;SDS011;5106;50.926;7.080;2022-07-29T11:39:32;5.63;;;2.42;;
10132;SDS011;5106;50.926;7.080;2022-07-29T11:42:59;4.85;;;2.60;;
10132;SDS011;5106;50.926;7.080;2022-07-29T11:47:41;6.45;;;2.30;;
10132;SDS011;5106;50.926;7.080;2022-07-29T11:50:08;3.67;;;2.30;;
10132;SDS011;5106;50.926;7.080;2022-07-29T11:52:38;6.00;;;2.35;;
10132;SDS011;5106;50.926;7.080;2022-07-29T11:55:11;10.00;;;2.50;;
10132;SDS011;5106;50.926;7.080;2022-07-29T11:57:47;5.53;;;2.47;;
10132;SDS011;5106;50.926;7.080;2022-07-29T12:00:28;3.47;;;2.15;;
10132;SDS011;5106;50.926;7.080;2022-07-29T12:03:03;4.30;;;2.20;;
10132;SDS011;5106;50.926;7.080;2022-07-29T12:05:37;5.13;;;2.20;;
10132;SDS011;5106;50.926;7.080;2022-07-29T12:08:05;4.82;;;2.38;;
10132;SDS011;5106;50.926;7.080;2022-07-29T12:10:31;4.70;;;2.03;;
10132;SDS011;5106;50.926;7.080;2022-07-29T12:12:57;5.03;;;2.38;;
10132;SDS011;5106;50.926;7.080;2022-07-29T12:15:23;3.47;;;2.15;;
10132;SDS011;5106;50.926;7.080;2022-07-29T12:17:50;3.97;;;2.30;;
10132;SDS011;5106;50.926;7.080;2022-07-29T12:20:26;5.25;;;2.20;;
10132;SDS011;5106;50.926;7.080;2022-07-29T12:22:54;5.85;;;2.13;;
10132;SDS011;5106;50.926;7.080;2022-07-29T12:25:20;6.05;;;2.20;;
10132;SDS011;5106;50.926;7.080;2022-07-29T12:27:56;6.93;;;2.35;;
10132;SDS011;5106;50.926;7.080;2022-07-29T12:30:33;5.28;;;2.25;;
10132;SDS011;5106;50.926;7.080;2022-07-29T12:33:13;4.30;;;2.45;;
10132;SDS011;5106;50.926;7.080;2022-07-29T12:35:54;6.05;;;2.60;;
10132;SDS011;5106;50.926;7.080;2022-07-29T12:38:25;4.43;;;2.47;;
10132;SDS011;5106;50.926;7.080;2022-07-29T12:40:51;5.80;;;1.90;;
10132;SDS011;5106;50.926;7.080;2022-07-29T12:43:19;6.50;;;2.20;;
10132;SDS011;5106;50.926;7.080;2022-07-29T12:45:50;3.50;;;1.90;;
10132;SDS011;5106;50.926;7.080;2022-07-29T12:48:17;6.45;;;2.35;;
10132;SDS011;5106;50.926;7.080;2022-07-29T12:51:04;2.75;;;2.03;;
10132;SDS011;5106;50.926;7.080;2022-07-29T12:53:32;4.40;;;2.40;;
10132;SDS011;5106;50.926;7.080;2022-07-29T12:55:59;4.60;;;2.25;;
10132;SDS011;5106;50.926;7.080;2022-07-29T12:58:40;4.25;;;2.13;;
10132;SDS011;5106;50.926;7.080;2022-07-29T13:03:47;6.25;;;2.45;;
10132;SDS011;5106;50.926;7.080;2022-07-29T13:06:27;5.57;;;2.33;;
10132;SDS011;5106;50.926;7.080;2022-07-29T13:11:33;3.20;;;1.90;;
10132;SDS011;5106;50.926;7.080;2022-07-29T13:14:00;2.95;;;2.20;;
10132;SDS011;5106;50.926;7.080;2022-07-29T13:16:26;3.75;;;1.95;;
10132;SDS011;5106;50.926;7.080;2022-07-29T13:21:34;6.43;;;2.45;;
10132;SDS011;5106;50.926;7.080;2022-07-29T13:24:01;3.85;;;2.10;;
10132;SDS011;5106;50.926;7.080;2022-07-29T13:26:26;5.45;;;2.00;;
10132;SDS011;5106;50.926;7.080;2022-07-29T13:28:52;4.65;;;2.38;;
10132;SDS011;5106;50.926;7.080;2022-07-29T13:31:19;5.88;;;2.42;;
10132;SDS011;5106;50.926;7.080;2022-07-29T13:33:45;3.35;;;2.10;;
10132;SDS011;5106;50.926;7.080;2022-07-29T13:36:10;3.92;;;2.17;;
10132;SDS011;5106;50.926;7.080;2022-07-29T13:38:36;4.13;;;2.28;;
10132;SDS011;5106;50.926;7.080;2022-07-29T13:41:02;4.45;;;2.13;;
10132;SDS011;5106;50.926;7.080;2022-07-29T13:43:27;4.22;;;2.17;;
10132;SDS011;5106;50.926;7.080;2022-07-29T13:45:53;5.50;;;2.40;;
10132;SDS011;5106;50.926;7.080;2022-07-29T13:48:18;4.55;;;2.20;;
10132;SDS011;5106;50.926;7.080;2022-07-29T13:50:44;3.92;;;2.40;;
10132;SDS011;5106;50.926;7.080;2022-07-29T13:53:11;4.25;;;2.40;;
10132;SDS011;5106;50.926;7.080;2022-07-29T13:55:38;5.03;;;2.35;;
10132;SDS011;5106;50.926;7.080;2022-07-29T13:58:03;5.28;;;2.40;;
10132;SDS011;5106;50.926;7.080;2022-07-29T14:00:29;2.90;;;2.20;;
10132;SDS011;5106;50.926;7.080;2022-07-29T14:02:55;4.68;;;2.28;;
10132;SDS011;5106;50.926;7.080;2022-07-29T14:05:20;5.03;;;2.70;;
10132;SDS011;5106;50.926;7.080;2022-07-29T14:07:46;6.15;;;2.50;;
10132;SDS011;5106;50.926;7.080;2022-07-29T14:10:11;6.28;;;2.63;;
10132;SDS011;5106;50.926;7.080;2022-07-29T14:12:37;7.05;;;2.90;;
10132;SDS011;5106;50.926;7.080;2022-07-29T14:15:03;6.40;;;3.03;;
10132;SDS011;5106;50.926;7.080;2022-07-29T14:17:29;5.70;;;2.70;;
10132;SDS011;5106;50.926;7.080;2022-07-29T14:19:54;6.85;;;2.90;;
10132;SDS011;5106;50.926;7.080;2022-07-29T14:22:20;8.35;;;3.00;;
10132;SDS011;5106;50.926;7.080;2022-07-29T14:24:45;5.38;;;2.75;;
10132;SDS011;5106;50.926;7.080;2022-07-29T14:27:11;9.48;;;3.40;;
10132;SDS011;5106;50.926;7.080;2022-07-29T14:29:37;4.22;;;2.80;;
10132;SDS011;5106;50.926;7.080;2022-07-29T14:32:03;5.85;;;3.00;;
10132;SDS011;5106;50.926;7.080;2022-07-29T14:34:33;6.28;;;2.95;;
10132;SDS011;5106;50.926;7.080;2022-07-29T14:36:59;5.40;;;2.97;;
10132;SDS011;5106;50.926;7.080;2022-07-29T14:39:25;6.10;;;2.78;;
10132;SDS011;5106;50.926;7.080;2022-07-29T14:41:51;5.30;;;3.00;;
10132;SDS011;5106;50.926;7.080;2022-07-29T14:44:17;5.35;;;2.72;;
10132;SDS011;5106;50.926;7.080;2022-07-29T14:46:44;6.95;;;3.00;;
10132;SDS011;5106;50.926;7.080;2022-07-29T14:49:09;4.32;;;2.97;;
10132;SDS011;5106;50.926;7.080;2022-07-29T14:51:35;6.38;;;2.97;;
10132;SDS011;5106;50.926;7.080;2022-07-29T14:54:01;5.97;;;2.95;;
10132;SDS011;5106;50.926;7.080;2022-07-29T14:56:26;5.57;;;2.50;;
10132;SDS011;5106;50.926;7.080;2022-07-29T14:58:54;4.60;;;2.80;;
10132;SDS011;5106;50.926;7.080;2022-07-29T15:01:21;5.18;;;2.75;;
10132;SDS011;5106;50.926;7.080;2022-07-29T15:03:46;7.30;;;3.15;;
10132;SDS011;5106;50.926;7.080;2022-07-29T15:06:12;3.92;;;2.75;;
10132;SDS011;5106;50.926;7.080;2022-07-29T15:08:38;6.25;;;2.75;;
10132;SDS011;5106;50.926;7.080;2022-07-29T15:11:03;5.90;;;3.17;;
10132;SDS011;5106;50.926;7.080;2022-07-29T15:13:29;5.03;;;3.00;;
10132;SDS011;5106;50.926;7.080;2022-07-29T15:15:55;7.47;;;3.00;;
10132;SDS011;5106;50.926;7.080;2022-07-29T15:18:20;5.38;;;3.22;;
10132;SDS011;5106;50.926;7.080;2022-07-29T15:20:46;6.43;;;3.03;;
10132;SDS011;5106;50.926;7.080;2022-07-29T15:23:11;8.85;;;2.90;;
10132;SDS011;5106;50.926;7.080;2022-07-29T15:25:38;4.80;;;2.78;;
10132;SDS011;5106;50.926;7.080;2022-07-29T15:28:04;3.97;;;2.63;;
10132;SDS011;5106;50.926;7.080;2022-07-29T15:30:32;7.80;;;2.60;;
10132;SDS011;5106;50.926;7.080;2022-07-29T15:32:59;5.82;;;2.72;;
10132;SDS011;5106;50.926;7.080;2022-07-29T15:35:25;7.90;;;3.20;;
10132;SDS011;5106;50.926;7.080;2022-07-29T15:37:51;4.88;;;2.42;;
10132;SDS011;5106;50.926;7.080;2022-07-29T15:40:16;5.68;;;2.65;;
10132;SDS011;5106;50.926;7.080;2022-07-29T15:42:42;5.28;;;2.50;;
10132;SDS011;5106;50.926;7.080;2022-07-29T15:45:08;6.25;;;2.40;;
10132;SDS011;5106;50.926;7.080;2022-07-29T15:47:36;5.50;;;2.75;;
10132;SDS011;5106;50.926;7.080;2022-07-29T15:50:02;3.72;;;2.70;;
10132;SDS011;5106;50.926;7.080;2022-07-29T15:52:28;3.80;;;2.40;;
10132;SDS011;5106;50.926;7.080;2022-07-29T15:54:54;4.72;;;2.70;;